ADDS METAR Data INFO
IDs: Format: Raw Decoded Include TAF

Data at: 0750 UTC 17 Oct 2017

K2V6 170724Z AUTO 26007KT 10SM CLR 02/M02 A3020 RMK AO2
K2V6 170704Z AUTO 25006KT 10SM CLR 03/M02 A3020 RMK AO2
K2V6 170649Z AUTO 26007KT 10SM CLR 03/M02 A3020 RMK AO2
K2V6 170629Z AUTO 24006KT 10SM CLR 02/M03 A3020 RMK AO2
K2V6 170604Z AUTO 26007KT 10SM CLR 04/M03 A3020 RMK AO2
K2V6 170549Z AUTO 25004KT 10SM CLR 03/M02 A3020 RMK AO2
K2V6 170529Z AUTO 24005KT 10SM CLR 03/M02 A3020 RMK AO2
K2V6 170509Z AUTO 23006KT 10SM CLR 02/M02 A3020 RMK AO2
K2V6 170449Z AUTO 30006KT 10SM CLR 04/M02 A3020 RMK AO2
K2V6 170429Z AUTO 28005KT 10SM CLR 05/M02 A3020 RMK AO2
K2V6 170404Z AUTO 29005KT 10SM CLR 06/M02 A3020 RMK AO2
K2V6 170349Z AUTO 29003KT 10SM CLR 05/M01 A3019 RMK AO2
K2V6 170329Z AUTO 34007KT 10SM CLR 10/M03 A3019 RMK AO2
K2V6 170304Z AUTO 33004KT 10SM CLR 08/M02 A3018 RMK AO2
K2V6 170249Z AUTO 00000KT 10SM CLR 08/M01 A3018 RMK AO2
K2V6 170224Z AUTO 34003KT 10SM CLR 10/M02 A3018 RMK AO2
K2V6 170204Z AUTO 36007KT 10SM CLR 11/M01 A3017 RMK AO2
K2V6 170149Z AUTO 35006KT 10SM CLR 11/M06 A3017 RMK AO2
K2V6 170124Z AUTO 35007KT 10SM CLR 12/M03 A3017 RMK AO2
K2V6 170104Z AUTO 31006KT 10SM CLR 16/M10 A3016 RMK AO2
K2V6 170044Z AUTO 34003KT 10SM CLR 14/M09 A3015 RMK AO2
K2V6 170024Z AUTO 26003KT 10SM CLR 18/M05 A3014 RMK AO2
K2V6 170004Z AUTO 27003KT 10SM CLR 21/M07 A3013 RMK AO2
K2V6 162349Z AUTO 00000KT 10SM CLR 22/M07 A3013 RMK AO2
K2V6 162329Z AUTO 00000KT 10SM CLR 23/M06 A3013 RMK AO2
K2V6 162304Z AUTO 31005KT 10SM CLR 22/M06 A3015 RMK AO2
K2V6 162249Z AUTO 32003KT 10SM CLR 22/M07 A3015 RMK AO2
K2V6 162224Z AUTO 32009KT 10SM CLR 23/M09 A3015 RMK AO2
K2V6 162204Z AUTO 31010KT 10SM CLR 23/M10 A3015 RMK AO2
K2V6 162144Z AUTO 31009G15KT 10SM CLR 24/M11 A3015 RMK AO2
K2V6 162124Z AUTO 31011KT 10SM CLR 25/M10 A3015 RMK AO2
K2V6 162104Z AUTO 32008KT 10SM CLR 25/M07 A3014 RMK AO2
K2V6 162044Z AUTO 29009KT 10SM CLR 25/M07 A3014 RMK AO2
K2V6 162024Z AUTO 27007KT 10SM CLR 25/M08 A3015 RMK AO2
K2V6 162004Z AUTO 27008KT 10SM CLR 25/M07 A3015 RMK AO2
K2V6 161949Z AUTO 26004KT 10SM CLR 24/M11 A3016 RMK AO2
K2V6 161924Z AUTO 00000KT 10SM CLR 23/M05 A3017 RMK AO2
K2V6 161904Z AUTO 28003KT 10SM CLR 22/M03 A3019 RMK AO2
K2V6 161844Z AUTO 28003KT 10SM CLR 21/M02 A3020 RMK AO2
K2V6 161824Z AUTO 26005KT 10SM CLR 21/M01 A3021 RMK AO2
K2V6 161804Z AUTO 25004KT 10SM CLR 20/M02 A3022 RMK AO2
K2V6 161744Z AUTO 24007KT 10SM CLR 21/M02 A3023 RMK AO2
K2V6 161724Z AUTO 22009KT 10SM CLR 21/M01 A3024 RMK AO2
K2V6 161704Z AUTO 23007KT 10SM CLR 20/M01 A3024 RMK AO2
K2V6 161644Z AUTO 24009KT 10SM CLR 19/00 A3026 RMK AO2
K2V6 161624Z AUTO 23010KT 10SM CLR 18/00 A3026 RMK AO2
K2V6 161604Z AUTO 22010G14KT 10SM CLR 17/00 A3026 RMK AO2
K2V6 161544Z AUTO 23010KT 10SM CLR 15/M01 A3028 RMK AO2
K2V6 161524Z AUTO 25007KT 10SM CLR 12/00 A3027 RMK AO2
K2V6 161504Z AUTO 25005KT 10SM CLR 10/00 A3028 RMK AO2
K2V6 161444Z AUTO 27004KT 5SM HZ CLR 08/M01 A3029 RMK AO2
K2V6 161424Z AUTO 25005KT 10SM CLR 06/M01 A3029 RMK AO2
K2V6 161404Z AUTO 22005KT 10SM CLR 03/M01 A3028 RMK AO2
K2V6 161349Z AUTO 21005KT 10SM CLR 01/M01 A3028 RMK AO2
K2V6 161324Z AUTO 22006KT 10SM CLR 00/M02 A3028 RMK AO2
K2V6 161304Z AUTO 22005KT 10SM CLR M01/M03 A3028 RMK AO2
K2V6 161244Z AUTO 21005KT 10SM CLR M01/M03 A3028 RMK AO2
K2V6 161229Z AUTO 22006KT 10SM CLR M01/M03 A3029 RMK AO2
K2V6 161204Z AUTO 20006KT 10SM CLR M01/M03 A3029 RMK AO2
K2V6 161144Z AUTO 22006KT 10SM CLR M01/M03 A3030 RMK AO2
K2V6 161124Z AUTO 21006KT 10SM CLR M01/M03 A3030 RMK AO2
K2V6 161104Z AUTO 23005KT 10SM CLR 00/M03 A3030 RMK AO2
K2V6 161019Z AUTO 22006KT 10SM CLR 01/M03 A3030 RMK AO2
K2V6 161004Z AUTO 23007KT 10SM CLR 02/M03 A3030 RMK AO2
K2V6 160949Z AUTO 22008KT 10SM CLR 02/M02 A3030 RMK AO2
K2V6 160924Z AUTO 22009KT 10SM CLR 03/M02 A3030 RMK AO2
K2V6 160904Z AUTO 21008KT 10SM CLR 02/M02 A3031 RMK AO2
K2V6 160849Z AUTO 22008KT 10SM CLR 02/M02 A3031 RMK AO2
K2V6 160824Z AUTO 21009KT 10SM CLR 03/M02 A3033 RMK AO2
K2V6 160804Z AUTO 21009KT 10SM CLR 02/M02 A3034 RMK AO2
K2V6 160744Z AUTO 21010KT 10SM CLR 03/M02 A3034 RMK AO2
K2V6 160724Z AUTO 22010KT 10SM CLR 03/M02 A3035 RMK AO2
K2V6 160704Z AUTO 23008KT 10SM CLR 03/M02 A3035 RMK AO2
K2V6 160644Z AUTO 21008KT 10SM CLR 03/M02 A3035 RMK AO2
K2V6 160629Z AUTO 22009KT 7SM CLR 02/M02 A3036 RMK AO2
K2V6 160609Z AUTO 22008KT 10SM CLR 02/M02 A3037 RMK AO2
K2V6 160549Z AUTO 22008KT 10SM CLR 00/M02 A3038 RMK AO2
K2V6 160529Z AUTO 21008KT 10SM CLR 00/M02 A3038 RMK AO2
K2V6 160504Z AUTO 22007KT 10SM CLR 00/M03 A3039 RMK AO2
K2V6 160444Z AUTO 21006KT 10SM CLR 01/M03 A3039 RMK AO2
K2V6 160424Z AUTO 21007KT 10SM CLR 01/M03 A3040 RMK AO2
K2V6 160404Z AUTO 20006KT 10SM CLR 01/M03 A3040 RMK AO2
K2V6 160344Z AUTO 21005KT 10SM CLR 02/M02 A3040 RMK AO2
K2V6 160324Z AUTO 21006KT 10SM CLR 02/M02 A3039 RMK AO2
K2V6 160309Z AUTO 20006KT 10SM CLR 03/M03 A3039 RMK AO2
K2V6 160244Z AUTO 18005KT 10SM CLR 05/M03 A3039 RMK AO2
K2V6 160224Z AUTO 17004KT 10SM CLR 05/M03 A3039 RMK AO2
K2V6 160204Z AUTO 00000KT 10SM CLR 04/M03 A3039 RMK AO2
K2V6 160149Z AUTO 00000KT 10SM CLR 05/M02 A3039 RMK AO2
K2V6 160129Z AUTO 15005KT 10SM CLR 06/M03 A3038 RMK AO2
K2V6 160104Z AUTO 14003KT 10SM CLR 07/M02 A3038 RMK AO2
K2V6 160049Z AUTO 14005KT 10SM CLR 07/M02 A3037 RMK AO2
K2V6 160024Z AUTO 20003KT 10SM CLR 10/M03 A3037 RMK AO2
K2V6 160004Z AUTO 00000KT 10SM CLR 13/M03 A3037 RMK AO2
K2V6 152349Z AUTO 00000KT 10SM CLR 15/M05 A3037 RMK AO2
K2V6 152324Z AUTO 00000KT 10SM CLR 15/M04 A3037 RMK AO2
K2V6 152304Z AUTO 29003KT 10SM CLR 16/M04 A3037 RMK AO2
K2V6 152249Z AUTO 27004KT 10SM CLR 16/M05 A3037 RMK AO2
K2V6 152229Z AUTO 32005KT 10SM CLR 16/M05 A3038 RMK AO2
K2V6 152204Z AUTO 31004KT 10SM CLR 16/M05 A3038 RMK AO2
K2V6 152149Z AUTO 00000KT 10SM CLR 16/M05 A3038 RMK AO2
K2V6 152129Z AUTO 28004KT 10SM CLR 16/M05 A3039 RMK AO2
K2V6 152104Z AUTO 30006KT 10SM CLR 16/M05 A3039 RMK AO2
K2V6 152044Z AUTO 33009KT 10SM CLR 16/M05 A3039 RMK AO2
K2V6 152024Z AUTO 31006KT 10SM CLR 16/M06 A3039 RMK AO2
K2V6 152004Z AUTO 31009G15KT 10SM CLR 16/M06 A3040 RMK AO2